Midnight Wolf — HO7969 — position and weather

sailwx.info

Track history (hours):
 
Tides and Currents Weather Stations Pressure Air Temp Water Temp Dewpoint Dewpoint Depression Visibility Wind Speed Wind Dir Waves Ship Positions

Midnight Wolf

Last reported at 2016-Aug-25 12:17 UTC. Time now 2016-Aug-26 13:44 UTC.
Position N 18°25' W 064°36'.

Length 51 m; draft 4 m.

Type: Cargo ship. MMSI: 351880000.

Date/timePositionNaut miles runAvg speedWind from/ knotsBaromVisibWave heightAir tempDewpointWater temp
2016-Aug-25 12:17N 18°25' W 064°36'1 1.1
2016-Aug-25 11:34N 18°24' W 064°36'0 0.0
2016-Aug-25 10:34N 18°24' W 064°36'1 0.6
2016-Aug-25 09:33N 18°25' W 064°36'0 0.2
2016-Aug-25 08:34N 18°25' W 064°36'0 0.0
2016-Aug-25 07:32N 18°25' W 064°36'0 0.0
2016-Aug-25 06:33N 18°25' W 064°36'0 0.0
2016-Aug-25 04:34N 18°25' W 064°36'0 0.0
2016-Aug-25 03:34N 18°25' W 064°36'0 0.0
2016-Aug-25 02:33N 18°25' W 064°36'0 0.0
2016-Aug-25 01:33N 18°25' W 064°36'0 0.0
2016-Aug-25 00:33N 18°25' W 064°36'0 0.0
2016-Aug-24 23:33N 18°25' W 064°36'0 0.0
2016-Aug-24 22:33N 18°25' W 064°36'  
2016-Aug-20 11:33N 18°25' W 064°36'7 6.9
2016-Aug-20 10:33N 18°23' W 064°43'8 7.6
2016-Aug-20 09:33N 18°25' W 064°51'72 8.0
2016-Aug-20 00:29N 18°29' W 066°07'1 1.5
2016-Aug-19 23:33N 18°28' W 066°06'0 0.0
2016-Aug-19 22:33N 18°28' W 066°06'0 0.0
2016-Aug-19 21:33N 18°28' W 066°06'0 0.0
2016-Aug-19 20:33N 18°28' W 066°06'0 0.0
2016-Aug-19 19:33N 18°28' W 066°06'0 0.0
2016-Aug-19 18:33N 18°28' W 066°06'0 0.0
2016-Aug-19 17:33N 18°28' W 066°06'0 0.0
2016-Aug-19 16:09N 18°28' W 066°06'0 0.0
2016-Aug-19 12:25N 18°28' W 066°06'0 0.2
2016-Aug-19 11:33N 18°28' W 066°06'5 4.9
2016-Aug-19 10:32N 18°31' W 066°02'63 9.0
2016-Aug-19 03:29N 18°27' W 064°56'9 9.2
2016-Aug-19 02:33N 18°23' W 064°48'8 8.1
2016-Aug-19 01:33N 18°22' W 064°39'  
Track history (hours):
 
Tides and Currents Weather Stations Pressure Air Temp Water Temp Dewpoint Dewpoint Depression Visibility Wind Speed Wind Dir Waves Ship Positions

Midnight Wolf

Last reported at 2016-Aug-25 12:17 UTC. Time now 2016-Aug-26 13:44 UTC.
Position N 18°25' W 064°36'.

Length 51 m; draft 4 m.

Type: Cargo ship. MMSI: 351880000.

Date/timePositionNaut miles runAvg speedWind from/ knotsBaromVisibWave heightAir tempDewpointWater temp
2016-Aug-25 12:17N 18°25' W 064°36'1 1.1
2016-Aug-25 11:34N 18°24' W 064°36'0 0.0
2016-Aug-25 10:34N 18°24' W 064°36'1 0.6
2016-Aug-25 09:33N 18°25' W 064°36'0 0.2
2016-Aug-25 08:34N 18°25' W 064°36'0 0.0
2016-Aug-25 07:32N 18°25' W 064°36'0 0.0
2016-Aug-25 06:33N 18°25' W 064°36'0 0.0
2016-Aug-25 04:34N 18°25' W 064°36'0 0.0
2016-Aug-25 03:34N 18°25' W 064°36'0 0.0
2016-Aug-25 02:33N 18°25' W 064°36'0 0.0
2016-Aug-25 01:33N 18°25' W 064°36'0 0.0
2016-Aug-25 00:33N 18°25' W 064°36'0 0.0
2016-Aug-24 23:33N 18°25' W 064°36'0 0.0
2016-Aug-24 22:33N 18°25' W 064°36'  
2016-Aug-20 11:33N 18°25' W 064°36'7 6.9
2016-Aug-20 10:33N 18°23' W 064°43'8 7.6
2016-Aug-20 09:33N 18°25' W 064°51'72 8.0
2016-Aug-20 00:29N 18°29' W 066°07'1 1.5
2016-Aug-19 23:33N 18°28' W 066°06'0 0.0
2016-Aug-19 22:33N 18°28' W 066°06'0 0.0
2016-Aug-19 21:33N 18°28' W 066°06'0 0.0
2016-Aug-19 20:33N 18°28' W 066°06'0 0.0
2016-Aug-19 19:33N 18°28' W 066°06'0 0.0
2016-Aug-19 18:33N 18°28' W 066°06'0 0.0
2016-Aug-19 17:33N 18°28' W 066°06'0 0.0
2016-Aug-19 16:09N 18°28' W 066°06'0 0.0
2016-Aug-19 12:25N 18°28' W 066°06'0 0.2
2016-Aug-19 11:33N 18°28' W 066°06'5 4.9
2016-Aug-19 10:32N 18°31' W 066°02'63 9.0
2016-Aug-19 03:29N 18°27' W 064°56'9 9.2
2016-Aug-19 02:33N 18°23' W 064°48'8 8.1
2016-Aug-19 01:33N 18°22' W 064°39'  

Dump ship's entire track history